EHKD Airport Information

Runway Information
Runway 04 Length 4183 ft width 98 ft
Elevation 3 ft Threshold 804 ft Heading 34
Runway 22 Length 4183 ft Width 98 ft
Elevation 2 ft Threshold 804 ft Heading 214
Airport Frequencies
Type APP Name APP Frequency 119.1 MHZ
Type FSS Name FINAL Frequency 123.3 MHZ
Type GND Name GND Frequency 121.725 MHZ
Type TWR Name TWR Frequency 120.125 MHZ
Airport Navaids
Type VOR-DME Name Den Helder Frequency 115550 KHZ
Airport Weather Information & NOTAM
ADDS - METARS form results

(1853 UTC 20 April 2021)
Data provider http://aviationweather.gov/metar/data/
 
METAR text: EHKD 201825Z AUTO 02005KT 9999 NCD 10/04 Q1017 BLU NOSIG
Conditions at: EHKD (DE KOOY (NAVY) , NL) observed 1825 UTC 20 April 2021
Temperature: 10.0°C (50°F)
Dewpoint: 4.0°C (39°F) [RH = 66%]
Pressure (altimeter): 30.03 inches Hg (1017.0 mb)
Winds: from the NNE (20 degrees) at 6 MPH (5 knots; 2.6 m/s)
Visibility: 6 or more miles (10+ km)
Ceiling: at least 12,000 feet AGL
Clouds: sky clear below 12,000 feet AGL
Weather: no significant weather observed at this time

METAR text: EHKD 201755Z AUTO 03006KT 010V070 9999 NCD 11/06 Q1017 BLU NOSIG
Conditions at: EHKD (DE KOOY (NAVY) , NL) observed 1755 UTC 20 April 2021
Temperature: 11.0°C (52°F)
Dewpoint: 6.0°C (43°F) [RH = 71%]
Pressure (altimeter): 30.03 inches Hg (1017.0 mb)
Winds: from the NNE (30 degrees) at 7 MPH (6 knots; 3.1 m/s)
Visibility: 6 or more miles (10+ km)
Ceiling: at least 12,000 feet AGL
Clouds: sky clear below 12,000 feet AGL
Weather: no significant weather observed at this time

Forecast for: EHKD (DE KOOY (NAVY) , NL)
Text: TAF EHKD 201640Z 2017/2105 01006KT CAVOK
Forecast period: 1700 to 2200 UTC 20 April 2021
Forecast type: FROM: standard forecast or significant change
Winds: from the N (10 degrees) at 7 MPH (6 knots; 3.1 m/s)
Visibility: 6 or more miles (10+ km)
Ceiling: unknown
Clouds: missing
Weather: NSW  (no significant weather)
Text: BECMG 2022/2024 4000 BR
Forecast period: 2200 UTC 20 April 2021 to 0500 UTC 21 April 2021
Forecast type: BECOMING: Conditions expected to become as follows by 0000 UTC 21 April 2021
Winds: from the N (10 degrees) at 7 MPH (6 knots; 3.1 m/s)
Visibility: 2.49 miles (4.01 km)
Ceiling: unknown
Clouds: missing
Weather: BR  (mist)
Text: PROB30 2100/2105 1200
Forecast period: 0000 to 0500 UTC 21 April 2021
Forecast type: PROBABLE: 30 percent likelihood of the following during this time
Visibility: 0.75 miles (1.21 km)
Ceiling: unknown
Clouds: missing
Weather: no significant weather forecast for this period